createdAt,value
2019-05-28T00:01:05.652Z,10.43
2019-05-28T00:04:00.769Z,11.83
2019-05-28T00:06:55.536Z,10.82
2019-05-28T00:09:50.445Z,10.50
2019-05-28T00:12:44.990Z,10.68
2019-05-28T00:15:39.675Z,11.80
2019-05-28T00:18:34.279Z,11.38
2019-05-28T00:21:28.682Z,10.95
2019-05-28T00:24:23.337Z,12.10
2019-05-28T00:27:18.267Z,12.85
2019-05-28T00:30:19.661Z,11.97
2019-05-28T00:33:09.586Z,12.18
2019-05-28T00:36:04.720Z,11.97
2019-05-28T00:38:59.207Z,10.93
2019-05-28T00:41:53.692Z,12.43
2019-05-28T00:44:48.213Z,11.95
2019-05-28T00:47:43.049Z,11.83
2019-05-28T00:50:37.729Z,11.97
2019-05-28T00:53:31.942Z,12.60
2019-05-28T00:56:26.573Z,12.53
2019-05-28T00:59:21.362Z,12.25
2019-05-28T01:02:15.851Z,12.45
2019-05-28T01:05:11.789Z,11.12
2019-05-28T01:08:09.241Z,12.43
2019-05-28T01:11:03.511Z,11.35
2019-05-28T01:13:57.892Z,11.78
2019-05-28T01:16:52.157Z,11.48
2019-05-28T01:19:46.571Z,11.03
2019-05-28T01:22:42.153Z,12.95
2019-05-28T01:25:36.499Z,12.05
2019-05-28T01:28:30.774Z,11.73
2019-05-28T01:31:25.820Z,12.33
2019-05-28T01:34:20.250Z,12.40
2019-05-28T01:37:16.381Z,13.43
2019-05-28T01:40:11.032Z,12.70
2019-05-28T01:43:05.571Z,13.45
2019-05-28T01:46:01.837Z,13.18
2019-05-28T01:48:56.395Z,12.35
2019-05-28T01:51:52.519Z,12.93
2019-05-28T01:54:47.072Z,12.85
2019-05-28T01:57:41.278Z,12.07
2019-05-28T02:00:35.869Z,13.20
2019-05-28T02:03:30.483Z,12.40
2019-05-28T02:06:25.056Z,12.98
2019-05-28T02:09:19.283Z,13.35
2019-05-28T02:12:13.799Z,12.45
2019-05-28T02:15:09.067Z,13.70
2019-05-28T02:18:04.791Z,13.15
2019-05-28T02:20:59.346Z,12.40
2019-05-28T02:23:53.600Z,13.43
2019-05-28T02:26:48.158Z,13.60
2019-05-28T02:29:42.645Z,12.90
2019-05-28T02:32:36.910Z,12.75
2019-05-28T02:35:31.336Z,13.10
2019-05-28T02:38:25.537Z,13.45
2019-05-28T02:41:20.124Z,12.75
2019-05-28T02:44:14.603Z,14.60
2019-05-28T02:47:09.977Z,14.00
2019-05-28T02:50:04.366Z,13.65
2019-05-28T02:52:59.026Z,14.45
2019-05-28T02:55:53.952Z,14.25
2019-05-28T02:58:52.723Z,15.08
2019-05-28T03:01:48.238Z,15.23
2019-05-28T03:04:42.896Z,15.83
2019-05-28T03:07:39.529Z,15.25
2019-05-28T03:11:01.389Z,15.45
2019-05-28T03:13:35.880Z,15.03
2019-05-28T03:16:33.018Z,16.17
2019-05-28T03:19:29.878Z,15.05
2019-05-28T03:22:24.844Z,15.50
2019-05-28T03:25:21.354Z,16.62
2019-05-28T03:28:15.978Z,14.83
2019-05-28T03:31:11.151Z,15.80
2019-05-28T03:34:07.416Z,15.78
2019-05-28T03:37:03.811Z,16.67
2019-05-28T03:40:01.554Z,17.92
2019-05-28T03:42:58.166Z,17.37
2019-05-28T03:45:52.774Z,18.42
2019-05-28T03:48:47.612Z,17.30
2019-05-28T03:51:41.797Z,16.93
2019-05-28T03:54:36.716Z,16.05
2019-05-28T03:57:32.904Z,16.25
2019-05-28T04:00:29.337Z,15.23
2019-05-28T04:03:24.072Z,14.35
2019-05-28T04:06:18.845Z,14.95
2019-05-28T04:09:15.184Z,14.07
2019-05-28T04:12:09.555Z,14.03
2019-05-28T04:15:03.781Z,14.15
2019-05-28T04:17:58.017Z,14.58
2019-05-28T04:20:52.345Z,15.05
2019-05-28T04:23:46.771Z,15.58
2019-05-28T04:26:41.085Z,14.53
2019-05-28T04:29:35.501Z,13.50
2019-05-28T04:32:40.084Z,13.90
2019-05-28T04:35:25.964Z,13.60
2019-05-28T04:38:22.118Z,13.65
2019-05-28T04:41:18.180Z,13.53
2019-05-28T04:44:12.470Z,14.07
2019-05-28T04:47:11.658Z,13.72
2019-05-28T04:50:06.561Z,13.38
2019-05-28T04:53:06.168Z,12.63
2019-05-28T04:56:00.439Z,14.80
2019-05-28T04:58:55.704Z,14.15
2019-05-28T05:01:50.179Z,13.95
2019-05-28T05:04:47.113Z,14.07
2019-05-28T05:07:41.510Z,14.80
2019-05-28T05:10:35.934Z,15.48
2019-05-28T05:13:37.823Z,13.95
2019-05-28T05:16:37.987Z,14.65
2019-05-28T05:19:33.488Z,14.10
2019-05-28T05:22:36.014Z,12.40
2019-05-28T05:25:39.456Z,13.90
2019-05-28T05:29:00.448Z,13.05
2019-05-28T05:31:56.751Z,12.78
2019-05-28T05:34:55.448Z,12.35
2019-05-28T05:37:51.813Z,13.13
2019-05-28T05:40:50.288Z,13.48
2019-05-28T05:43:45.227Z,13.58
2019-05-28T05:46:42.523Z,12.23
2019-05-28T05:49:41.387Z,12.00
2019-05-28T05:52:38.086Z,11.33
2019-05-28T05:55:34.739Z,11.63
2019-05-28T06:05:13.535Z,11.08
2019-05-28T06:08:19.032Z,10.75
2019-05-28T06:11:16.486Z,11.73
2019-05-28T06:14:17.804Z,9.85
2019-05-28T06:17:14.034Z,10.58
2019-05-28T06:20:10.437Z,10.40
2019-05-28T06:23:05.425Z,10.18
2019-05-28T06:26:02.931Z,10.90
2019-05-28T06:28:59.615Z,10.08
2019-05-28T06:32:03.766Z,9.60
2019-05-28T06:35:01.259Z,10.65
2019-05-28T06:38:15.961Z,9.98
2019-05-28T06:41:11.593Z,9.93
2019-05-28T06:44:09.315Z,10.53
2019-05-28T06:47:09.341Z,9.68
2019-05-28T06:50:07.755Z,9.35
2019-05-28T06:53:05.970Z,9.90
2019-05-28T06:56:02.858Z,9.35
2019-05-28T06:58:58.016Z,9.45
2019-05-28T07:01:54.497Z,9.20
2019-05-28T07:04:54.257Z,9.68
2019-05-28T07:07:52.017Z,10.43
2019-05-28T07:10:57.160Z,10.13
2019-05-28T07:13:48.285Z,10.00
2019-05-28T07:16:53.300Z,9.78
2019-05-28T07:19:40.790Z,9.33
2019-05-28T07:22:35.374Z,8.98
2019-05-28T07:25:29.544Z,9.23
2019-05-28T07:28:24.664Z,9.45
2019-05-28T07:31:21.711Z,9.50
2019-05-28T07:34:30.851Z,9.60
2019-05-28T07:37:20.291Z,9.13
2019-05-28T07:40:30.419Z,8.75
2019-05-28T07:43:19.571Z,9.45
2019-05-28T07:46:16.331Z,9.48
2019-05-28T07:49:14.031Z,8.98
2019-05-28T07:52:08.994Z,10.23
2019-05-28T07:55:03.756Z,9.70
2019-05-28T07:58:00.769Z,9.58
2019-05-28T08:00:56.629Z,9.68
2019-05-28T08:03:53.446Z,9.73
2019-05-28T08:07:03.630Z,9.70
2019-05-28T08:10:09.265Z,10.20
2019-05-28T08:13:15.982Z,10.18
2019-05-28T08:16:26.726Z,9.33
2019-05-28T08:19:22.768Z,9.85
2019-05-28T08:26:08.302Z,9.83
2019-05-28T08:29:16.936Z,10.03
2019-05-28T08:32:16.553Z,10.38
2019-05-28T08:39:26.671Z,12.43
2019-05-28T08:42:22.181Z,13.10
2019-05-28T08:45:18.060Z,12.37
2019-05-28T08:48:12.893Z,12.40
2019-05-28T08:51:10.528Z,11.95
2019-05-28T08:54:20.274Z,11.80
2019-05-28T08:57:21.039Z,12.30
2019-05-28T09:00:21.125Z,13.30
2019-05-28T09:03:18.631Z,13.25
2019-05-28T09:11:18.241Z,12.93
2019-05-28T09:14:58.585Z,11.53
2019-05-28T09:18:36.871Z,11.68
2019-05-28T09:26:37.516Z,11.00
2019-05-28T09:29:41.610Z,9.50
2019-05-28T09:33:09.630Z,10.60
2019-05-28T09:36:08.975Z,10.38
2019-05-28T09:39:04.461Z,9.70
2019-05-28T09:42:05.617Z,10.10
2019-05-28T09:45:45.807Z,10.45
2019-05-28T09:51:38.437Z,9.55
2019-05-28T09:54:57.291Z,8.78
2019-05-28T09:57:56.126Z,9.23
2019-05-28T10:00:58.343Z,8.95
2019-05-28T10:04:01.154Z,9.33
2019-05-28T10:07:06.205Z,9.10
2019-05-28T10:10:08.387Z,8.13
2019-05-28T10:13:07.007Z,8.43
2019-05-28T10:16:04.440Z,8.88
2019-05-28T10:19:14.583Z,10.35
2019-05-28T10:22:12.746Z,10.30
2019-05-28T10:25:09.461Z,10.93
2019-05-28T10:28:10.048Z,11.35
2019-05-28T10:31:06.540Z,11.25
2019-05-28T10:34:04.344Z,10.78
2019-05-28T10:37:02.599Z,9.80
2019-05-28T10:39:58.263Z,9.55
2019-05-28T10:42:56.702Z,9.80
2019-05-28T10:45:53.487Z,8.63
2019-05-28T10:49:12.226Z,8.43
2019-05-28T10:52:10.782Z,8.35
2019-05-28T10:55:07.730Z,8.55
2019-05-28T10:58:10.642Z,8.43
2019-05-28T11:01:04.361Z,8.05
2019-05-28T11:04:00.142Z,7.97
2019-05-28T11:07:10.523Z,7.72
2019-05-28T11:10:24.388Z,7.22
2019-05-28T11:14:08.808Z,7.12
2019-05-28T11:17:08.004Z,7.50
2019-05-28T11:20:05.085Z,6.85
2019-05-28T11:23:05.941Z,6.97
2019-05-28T11:26:04.832Z,6.33
2019-05-28T11:29:02.778Z,5.28
